createdAt,value
2022-10-03T00:02:27.931Z,8.70
2022-10-03T00:05:28.113Z,7.88
2022-10-03T00:08:19.888Z,8.52
2022-10-03T00:11:16.750Z,7.78
2022-10-03T00:14:23.256Z,8.25
2022-10-03T00:17:04.998Z,8.40
2022-10-03T00:19:49.976Z,7.63
2022-10-03T00:22:19.351Z,7.68
2022-10-03T00:25:04.528Z,6.82
2022-10-03T00:27:42.091Z,6.50
2022-10-03T00:30:24.557Z,10.10
2022-10-03T00:33:19.232Z,7.30
2022-10-03T00:36:11.260Z,5.88
2022-10-03T00:38:52.806Z,5.95
2022-10-03T00:41:44.059Z,6.13
2022-10-03T00:44:52.339Z,6.07
2022-10-03T00:47:40.408Z,6.53
2022-10-03T00:50:15.520Z,6.25
2022-10-03T00:52:55.967Z,5.50
2022-10-03T00:55:25.149Z,5.63
2022-10-03T00:58:13.718Z,5.80
2022-10-03T01:00:45.610Z,5.45
2022-10-03T01:03:14.911Z,5.47
2022-10-03T01:06:19.479Z,4.85
2022-10-03T01:09:04.163Z,5.88
2022-10-03T01:11:42.084Z,4.78
2022-10-03T01:14:31.210Z,4.85
2022-10-03T01:17:16.619Z,5.00
2022-10-03T01:19:48.960Z,5.22
2022-10-03T01:22:54.969Z,4.45
2022-10-03T01:25:33.164Z,4.82
2022-10-03T01:28:23.181Z,4.75
2022-10-03T01:30:54.400Z,4.60
2022-10-03T01:33:41.048Z,4.85
2022-10-03T01:36:29.407Z,4.35
2022-10-03T01:39:11.764Z,4.25
2022-10-03T01:41:46.963Z,4.07
2022-10-03T01:44:15.908Z,4.38
2022-10-03T01:46:53.700Z,4.80
2022-10-03T01:49:51.445Z,4.28
2022-10-03T01:52:38.761Z,4.70
2022-10-03T01:55:37.680Z,4.55
2022-10-03T01:58:07.795Z,4.75
2022-10-03T02:00:53.951Z,4.25
2022-10-03T02:03:31.713Z,5.15
2022-10-03T02:06:11.125Z,4.22
2022-10-03T02:08:40.715Z,4.95
2022-10-03T02:11:10.555Z,5.57
2022-10-03T02:13:55.554Z,4.10
2022-10-03T02:16:44.292Z,4.30
2022-10-03T02:19:33.925Z,3.55
2022-10-03T02:22:00.649Z,4.25
2022-10-03T02:24:36.110Z,4.82
2022-10-03T02:27:27.603Z,3.63
2022-10-03T02:30:32.918Z,4.57
2022-10-03T02:33:34.738Z,4.38
2022-10-03T02:36:30.843Z,3.92
2022-10-03T02:39:29.785Z,4.25
2022-10-03T02:42:26.725Z,4.50
2022-10-03T02:45:15.480Z,3.95
2022-10-03T02:48:32.384Z,4.20
2022-10-03T02:51:14.247Z,3.78
2022-10-03T02:54:12.838Z,4.55
2022-10-03T02:56:56.440Z,4.47
2022-10-03T02:59:50.336Z,4.03
2022-10-03T03:02:40.142Z,4.05
2022-10-03T03:05:21.647Z,3.80
2022-10-03T03:08:06.837Z,4.45
2022-10-03T03:11:18.689Z,4.38
2022-10-03T03:14:01.457Z,4.03
2022-10-03T03:16:47.701Z,4.07
2022-10-03T03:19:51.169Z,3.95
2022-10-03T03:22:39.473Z,4.03
2022-10-03T03:25:18.037Z,4.00
2022-10-03T03:27:52.842Z,4.40
2022-10-03T03:30:23.147Z,4.57
2022-10-03T03:33:15.602Z,4.38
2022-10-03T03:35:57.704Z,3.67
2022-10-03T03:38:41.044Z,4.57
2022-10-03T03:41:43.432Z,5.05
2022-10-03T03:44:31.368Z,4.63
2022-10-03T03:47:20.174Z,4.22
2022-10-03T03:50:00.855Z,3.90
2022-10-03T03:52:48.974Z,4.43
2022-10-03T03:55:33.220Z,4.63
2022-10-03T03:58:24.679Z,4.00
2022-10-03T04:01:18.120Z,4.47
2022-10-03T04:03:51.957Z,4.00
2022-10-03T04:06:26.552Z,4.03
2022-10-03T04:09:29.861Z,4.03
2022-10-03T04:12:26.392Z,4.25
2022-10-03T04:15:11.113Z,4.50
2022-10-03T04:18:23.997Z,5.05
2022-10-03T04:21:14.560Z,4.22
2022-10-03T04:23:45.960Z,4.90
2022-10-03T04:26:28.439Z,5.28
2022-10-03T04:29:30.444Z,6.50
2022-10-03T04:32:09.222Z,7.05
2022-10-03T04:34:57.377Z,5.10
2022-10-03T04:37:40.650Z,4.60
2022-10-03T04:40:47.374Z,4.93
2022-10-03T04:43:43.647Z,5.43
2022-10-03T04:46:55.466Z,6.25
2022-10-03T04:49:45.635Z,5.82
2022-10-03T04:53:04.823Z,4.90
2022-10-03T04:55:41.382Z,4.70
2022-10-03T04:58:25.824Z,5.07
2022-10-03T05:03:43.516Z,5.13
2022-10-03T05:06:31.705Z,5.40
2022-10-03T05:09:35.637Z,4.70
2022-10-03T05:12:30.042Z,4.93
2022-10-03T05:15:11.673Z,4.95
2022-10-03T05:18:12.327Z,5.18
2022-10-03T05:20:52.846Z,5.05
2022-10-03T05:24:02.821Z,5.22
2022-10-03T05:26:50.047Z,5.70
2022-10-03T05:29:34.615Z,5.30
2022-10-03T05:35:01.479Z,6.78
2022-10-03T05:37:34.972Z,5.28
2022-10-03T05:40:04.554Z,4.43
2022-10-03T05:42:49.412Z,5.50
2022-10-03T05:45:49.944Z,5.90
2022-10-03T05:48:43.557Z,5.40
2022-10-03T05:51:43.404Z,5.22
2022-10-03T05:54:36.706Z,5.50
2022-10-03T05:57:07.895Z,5.35
2022-10-03T06:00:01.052Z,5.35
2022-10-03T06:02:49.752Z,5.65
2022-10-03T06:05:27.137Z,5.63
2022-10-03T06:08:21.770Z,5.72
2022-10-03T06:11:11.812Z,5.50
2022-10-03T06:14:09.204Z,4.80
2022-10-03T06:17:13.284Z,5.78
2022-10-03T06:19:59.178Z,5.60
2022-10-03T06:22:44.094Z,5.90
2022-10-03T06:25:40.062Z,5.80
2022-10-03T06:28:42.856Z,6.28
2022-10-03T06:31:51.788Z,5.82
2022-10-03T06:34:36.996Z,5.63
2022-10-03T06:37:27.027Z,5.10
2022-10-03T06:40:29.097Z,5.75
2022-10-03T06:43:13.915Z,5.35
2022-10-03T06:46:13.253Z,5.82
2022-10-03T06:49:11.917Z,6.05
2022-10-03T06:52:02.494Z,6.13
2022-10-03T06:54:31.867Z,6.40
2022-10-03T06:57:16.542Z,6.05
2022-10-03T06:59:48.998Z,5.78
2022-10-03T07:02:21.338Z,5.90
2022-10-03T07:05:19.392Z,6.05
2022-10-03T07:08:24.606Z,5.80
2022-10-03T07:13:29.638Z,5.80
2022-10-03T07:16:26.435Z,6.32
2022-10-03T07:19:29.696Z,5.75
2022-10-03T07:22:33.215Z,6.18
2022-10-03T07:25:37.056Z,6.07
2022-10-03T07:28:14.984Z,6.28
2022-10-03T07:30:54.979Z,6.18
2022-10-03T07:33:56.839Z,6.45
2022-10-03T07:36:44.963Z,6.70
2022-10-03T07:39:42.793Z,7.18
2022-10-03T07:42:18.173Z,6.30
2022-10-03T07:45:04.760Z,6.60
2022-10-03T07:47:52.639Z,7.22
2022-10-03T07:50:49.823Z,7.95
2022-10-03T07:53:22.226Z,7.07
2022-10-03T07:56:00.433Z,8.25
2022-10-03T07:58:29.545Z,9.05
2022-10-03T08:01:06.959Z,9.18
2022-10-03T08:03:33.427Z,11.57
2022-10-03T08:06:15.786Z,11.77
2022-10-03T08:09:16.318Z,11.07
2022-10-03T08:11:53.400Z,11.32
2022-10-03T08:14:37.890Z,12.40
2022-10-03T08:20:07.890Z,13.95
2022-10-03T08:23:01.292Z,15.50
2022-10-03T08:25:55.172Z,15.32
2022-10-03T08:28:33.709Z,16.15
2022-10-03T08:31:42.447Z,16.80
2022-10-03T08:34:27.596Z,18.35
2022-10-03T08:37:00.125Z,17.73
2022-10-03T08:40:04.635Z,17.88
2022-10-03T08:43:07.864Z,18.75
2022-10-03T08:46:11.599Z,17.30
2022-10-03T08:48:50.159Z,18.55
2022-10-03T08:51:35.376Z,20.30
2022-10-03T08:54:10.029Z,17.20
2022-10-03T08:57:09.419Z,18.65
2022-10-03T09:00:03.398Z,19.02
2022-10-03T09:03:33.136Z,17.17
2022-10-03T09:06:29.961Z,15.13
2022-10-03T09:09:21.197Z,14.98
2022-10-03T09:11:56.905Z,15.40
2022-10-03T09:14:50.827Z,15.18
2022-10-03T09:17:55.895Z,15.37
2022-10-03T09:23:40.504Z,14.15
2022-10-03T09:26:44.746Z,12.05
2022-10-03T09:29:38.736Z,13.70
2022-10-03T09:32:42.886Z,14.43
2022-10-03T09:35:28.075Z,13.83
2022-10-03T09:38:32.254Z,15.75
2022-10-03T09:41:41.086Z,14.17
2022-10-03T09:44:45.395Z,13.93
2022-10-03T09:47:46.221Z,11.10
2022-10-03T09:50:53.018Z,13.55
2022-10-03T09:53:38.457Z,12.45
2022-10-03T09:56:44.310Z,10.85
2022-10-03T09:59:29.131Z,10.77
2022-10-03T10:02:10.816Z,9.10
2022-10-03T10:05:08.419Z,11.40
2022-10-03T10:08:12.715Z,10.30
2022-10-03T10:11:01.226Z,11.02
2022-10-03T10:14:07.250Z,8.48
2022-10-03T10:16:52.174Z,9.93
2022-10-03T10:22:20.319Z,9.38
2022-10-03T10:25:12.969Z,8.95
2022-10-03T10:28:17.062Z,8.65
2022-10-03T10:30:54.200Z,10.50
2022-10-03T10:33:42.366Z,9.45
2022-10-03T10:36:46.586Z,9.30
2022-10-03T10:39:34.174Z,7.40
2022-10-03T10:42:28.439Z,7.18
2022-10-03T10:45:32.512Z,7.10
2022-10-03T10:48:08.278Z,7.13
2022-10-03T10:51:08.720Z,7.20
2022-10-03T10:54:27.049Z,7.30
2022-10-03T10:57:07.947Z,5.95
2022-10-03T11:00:11.530Z,5.82
2022-10-03T11:02:56.225Z,6.30
2022-10-03T11:05:52.443Z,5.82
2022-10-03T11:08:42.089Z,4.60
2022-10-03T11:11:45.785Z,4.90
2022-10-03T11:14:50.514Z,5.45
2022-10-03T11:17:26.800Z,5.50
2022-10-03T11:20:21.221Z,5.25
2022-10-03T11:23:24.473Z,4.63
2022-10-03T11:26:09.340Z,3.80
2022-10-03T11:28:54.718Z,4.43
2022-10-03T11:31:46.654Z,5.40
2022-10-03T11:34:48.132Z,5.20
2022-10-03T11:37:40.771Z,5.32
2022-10-03T11:40:28.133Z,4.53
2022-10-03T11:43:26.214Z,4.30
2022-10-03T11:46:16.992Z,4.95
2022-10-03T11:49:05.497Z,3.78
2022-10-03T11:51:48.280Z,3.20
2022-10-03T11:54:31.463Z,4.72
2022-10-03T11:57:26.185Z,4.75
2022-10-03T12:00:06.071Z,4.60
2022-10-03T12:03:10.881Z,4.05
2022-10-03T12:06:35.206Z,4.50
2022-10-03T12:09:19.170Z,4.13
2022-10-03T12:12:19.833Z,4.10
2022-10-03T12:14:52.236Z,3.72
2022-10-03T12:17:39.658Z,3.95
2022-10-03T12:20:58.828Z,4.00
2022-10-03T12:23:25.946Z,4.28
2022-10-03T12:25:54.388Z,4.75
2022-10-03T12:28:39.805Z,4.78
2022-10-03T12:31:26.296Z,4.30
2022-10-03T12:34:21.782Z,5.28
2022-10-03T12:36:53.309Z,4.90
2022-10-03T12:39:39.186Z,4.97
2022-10-03T12:42:32.273Z,6.43
2022-10-03T12:45:26.591Z,4.63
2022-10-03T12:48:16.349Z,4.18
2022-10-03T12:51:01.810Z,4.95
2022-10-03T12:53:52.660Z,4.28
2022-10-03T12:56:45.530Z,4.43
2022-10-03T12:59:14.780Z,5.28
2022-10-03T13:02:22.818Z,3.30
2022-10-03T13:05:11.081Z,3.85
2022-10-03T13:07:52.897Z,4.13
2022-10-03T13:10:57.014Z,4.43
2022-10-03T13:14:06.349Z,3.63
2022-10-03T13:17:11.688Z,3.78
2022-10-03T13:20:16.419Z,3.28
2022-10-03T13:23:03.356Z,3.78
2022-10-03T13:25:45.367Z,2.95
2022-10-03T13:28:34.764Z,2.95
2022-10-03T13:31:15.323Z,2.92
2022-10-03T13:33:46.629Z,3.30
2022-10-03T13:36:35.889Z,3.03
2022-10-03T13:39:26.734Z,3.20
2022-10-03T13:42:31.662Z,3.40
2022-10-03T13:47:43.783Z,2.80
2022-10-03T13:50:39.626Z,3.65
2022-10-03T13:53:25.754Z,2.70
2022-10-03T13:56:01.784Z,2.08
2022-10-03T13:58:44.929Z,2.22
2022-10-03T14:01:30.181Z,2.33
2022-10-03T14:04:36.587Z,2.60
2022-10-03T14:07:18.292Z,3.25
2022-10-03T14:10:00.691Z,2.50
2022-10-03T14:12:55.489Z,2.33
2022-10-03T14:15:39.532Z,3.00
2022-10-03T14:18:05.917Z,2.95
2022-10-03T14:20:59.481Z,2.40
2022-10-03T14:23:36.440Z,3.05
2022-10-03T14:26:14.116Z,2.92
2022-10-03T14:28:52.493Z,2.25
2022-10-03T14:31:41.690Z,2.40
2022-10-03T14:34:23.699Z,3.00
2022-10-03T14:36:56.971Z,3.20
2022-10-03T14:40:28.193Z,3.38
2022-10-03T14:42:54.693Z,2.70
2022-10-03T14:45:29.657Z,2.60
2022-10-03T14:48:14.318Z,2.88
2022-10-03T14:50:42.173Z,2.72
2022-10-03T14:53:21.519Z,2.55
2022-10-03T14:56:11.742Z,2.17
2022-10-03T14:58:46.136Z,2.55
2022-10-03T15:01:19.306Z,2.88
2022-10-03T15:03:58.032Z,2.75
2022-10-03T15:06:48.848Z,3.05
2022-10-03T15:09:43.047Z,2.40
2022-10-03T15:12:22.482Z,2.30
2022-10-03T15:14:59.983Z,2.78
2022-10-03T15:17:35.541Z,2.75
2022-10-03T15:20:05.517Z,2.17
2022-10-03T15:22:35.706Z,2.30
2022-10-03T15:25:08.742Z,3.00
2022-10-03T15:27:35.562Z,2.85
2022-10-03T15:30:05.738Z,2.45
2022-10-03T15:32:39.343Z,2.45
2022-10-03T15:35:06.844Z,2.40
2022-10-03T15:37:40.309Z,3.28
2022-10-03T15:40:20.494Z,2.83
2022-10-03T15:43:09.175Z,2.92
2022-10-03T15:45:37.675Z,2.50
2022-10-03T15:48:13.217Z,2.38
2022-10-03T15:50:45.121Z,2.65
2022-10-03T15:53:36.552Z,2.22
2022-10-03T15:56:24.016Z,2.17
2022-10-03T15:58:55.165Z,3.35
2022-10-03T16:01:23.959Z,2.58
2022-10-03T16:04:19.779Z,2.50
2022-10-03T16:06:55.299Z,2.45
2022-10-03T16:09:21.688Z,2.83
2022-10-03T16:11:51.026Z,3.10
2022-10-03T16:14:30.095Z,2.08
2022-10-03T16:17:01.433Z,2.60
2022-10-03T16:19:42.484Z,2.47
2022-10-03T16:22:41.221Z,2.67
2022-10-03T16:25:14.117Z,2.33
2022-10-03T16:27:53.053Z,2.80
2022-10-03T16:30:27.504Z,2.58
2022-10-03T16:33:08.011Z,2.30
2022-10-03T16:35:57.296Z,2.58
2022-10-03T16:38:27.517Z,3.28
2022-10-03T16:41:03.214Z,3.80
2022-10-03T16:43:33.011Z,4.45
2022-10-03T16:46:02.296Z,2.88
2022-10-03T16:48:53.254Z,4.47
2022-10-03T16:51:21.258Z,5.03
2022-10-03T16:53:51.722Z,3.53
2022-10-03T16:56:25.389Z,3.40
2022-10-03T16:58:54.615Z,4.47
2022-10-03T17:01:36.601Z,5.05
2022-10-03T17:04:25.900Z,4.75
2022-10-03T17:07:00.620Z,3.65
2022-10-03T17:09:42.533Z,3.13
2022-10-03T17:12:17.416Z,3.92
2022-10-03T17:14:44.695Z,3.30
2022-10-03T17:17:24.119Z,3.47
2022-10-03T17:20:00.719Z,3.92
2022-10-03T17:22:37.866Z,3.22
2022-10-03T17:25:43.125Z,3.83
2022-10-03T17:28:27.412Z,3.05
2022-10-03T17:30:59.507Z,4.93
2022-10-03T17:33:38.154Z,3.95
2022-10-03T17:36:31.473Z,3.55
2022-10-03T17:39:05.620Z,4.85
2022-10-03T17:44:35.043Z,4.03
2022-10-03T17:47:18.921Z,3.63
2022-10-03T17:49:58.174Z,3.60
2022-10-03T17:52:26.021Z,4.13
2022-10-03T17:54:57.074Z,4.57
2022-10-03T17:57:34.349Z,4.78
2022-10-03T18:00:07.710Z,8.30
2022-10-03T18:02:49.351Z,9.60
2022-10-03T18:05:25.127Z,7.43
2022-10-03T18:07:54.216Z,11.18
2022-10-03T18:10:46.488Z,10.93
2022-10-03T18:13:27.680Z,9.05
2022-10-03T18:16:07.570Z,7.90
2022-10-03T18:18:48.096Z,6.90
2022-10-03T18:21:35.576Z,7.18
2022-10-03T18:24:02.556Z,6.85
2022-10-03T18:26:44.819Z,6.28
2022-10-03T18:29:35.988Z,6.53
2022-10-03T18:32:21.105Z,6.13
2022-10-03T18:34:50.756Z,6.05
2022-10-03T18:37:26.237Z,5.30
2022-10-03T18:39:57.070Z,5.00
2022-10-03T18:42:28.329Z,4.90
2022-10-03T18:44:57.699Z,5.18
2022-10-03T18:47:29.704Z,4.78
2022-10-03T18:50:03.495Z,5.28
2022-10-03T18:53:07.480Z,4.97
2022-10-03T18:55:44.472Z,4.88
2022-10-03T18:58:28.118Z,5.60
2022-10-03T19:01:03.748Z,5.93
2022-10-03T19:03:40.234Z,5.03
2022-10-03T19:06:19.552Z,6.05
2022-10-03T19:08:54.160Z,6.50
2022-10-03T19:11:28.659Z,7.55
2022-10-03T19:14:06.978Z,7.20
2022-10-03T19:16:49.819Z,7.53
2022-10-03T19:19:16.784Z,7.65
2022-10-03T19:21:43.711Z,7.93
2022-10-03T19:24:17.494Z,6.97
2022-10-03T19:26:56.350Z,7.78
2022-10-03T19:29:29.599Z,8.57
2022-10-03T19:32:00.395Z,7.90
2022-10-03T19:34:37.767Z,7.78
2022-10-03T19:37:11.937Z,7.47
2022-10-03T19:42:27.279Z,7.68
2022-10-03T19:44:59.464Z,7.82
2022-10-03T19:47:43.179Z,8.60
2022-10-03T19:50:28.056Z,8.18
2022-10-03T19:52:55.027Z,9.80
2022-10-03T19:55:31.001Z,8.18
2022-10-03T19:58:04.029Z,9.07
2022-10-03T20:00:39.219Z,8.35
2022-10-03T20:03:29.128Z,9.15
2022-10-03T20:06:07.690Z,9.43
2022-10-03T20:08:55.918Z,7.43
2022-10-03T20:11:43.393Z,8.70
2022-10-03T20:14:29.075Z,7.90
2022-10-03T20:17:02.233Z,7.18
2022-10-03T20:20:02.428Z,8.05
2022-10-03T20:22:31.556Z,7.80
2022-10-03T20:24:59.674Z,7.70
2022-10-03T20:27:43.228Z,7.55
2022-10-03T20:30:22.038Z,7.25
2022-10-03T20:32:51.006Z,7.20
2022-10-03T20:35:34.026Z,9.48
2022-10-03T20:38:13.210Z,7.60
2022-10-03T20:40:45.742Z,7.63
2022-10-03T20:43:29.621Z,8.65
2022-10-03T20:46:20.159Z,7.68
2022-10-03T20:49:21.018Z,7.55
2022-10-03T20:51:50.243Z,6.78
2022-10-03T20:54:33.220Z,7.18
2022-10-03T20:57:02.725Z,6.30
2022-10-03T20:59:52.246Z,7.18
2022-10-03T21:02:38.900Z,6.60
2022-10-03T21:05:15.085Z,6.65
2022-10-03T21:07:55.199Z,6.60
2022-10-03T21:10:26.741Z,6.82
2022-10-03T21:12:57.768Z,6.72
2022-10-03T21:15:37.912Z,6.05
2022-10-03T21:18:06.138Z,5.70
2022-10-03T21:20:40.050Z,6.25
2022-10-03T21:23:22.883Z,6.85
2022-10-03T21:25:51.933Z,6.60
2022-10-03T21:28:30.114Z,6.70
2022-10-03T21:30:59.593Z,5.97
2022-10-03T21:33:31.178Z,7.18
2022-10-03T21:36:09.285Z,6.80
2022-10-03T21:38:39.619Z,6.43
2022-10-03T21:41:48.294Z,6.85
2022-10-03T21:44:31.920Z,6.50
2022-10-03T21:47:29.025Z,7.40
2022-10-03T21:50:01.048Z,7.00
2022-10-03T21:52:48.376Z,6.15
2022-10-03T21:55:52.209Z,7.00
2022-10-03T21:59:01.328Z,6.25
2022-10-03T22:01:36.516Z,8.20
2022-10-03T22:04:23.931Z,6.47
2022-10-03T22:07:14.282Z,5.95
2022-10-03T22:09:46.720Z,6.55
2022-10-03T22:12:13.933Z,6.88
2022-10-03T22:14:55.524Z,5.85
2022-10-03T22:17:40.464Z,6.78
2022-10-03T22:20:23.359Z,6.40
2022-10-03T22:23:35.451Z,6.35
2022-10-03T22:26:21.707Z,6.93
2022-10-03T22:29:04.882Z,6.22
2022-10-03T22:31:52.738Z,5.97
2022-10-03T22:34:37.670Z,5.95
2022-10-03T22:37:04.217Z,6.60
2022-10-03T22:39:33.910Z,6.18
2022-10-03T22:42:03.616Z,6.55
2022-10-03T22:44:33.775Z,6.43
2022-10-03T22:47:06.125Z,6.03
2022-10-03T22:49:38.222Z,6.20
2022-10-03T22:52:07.210Z,6.50
2022-10-03T22:54:38.113Z,6.53
2022-10-03T22:57:07.598Z,6.13
2022-10-03T22:59:39.787Z,6.10
2022-10-03T23:02:09.216Z,6.90
2022-10-03T23:04:40.795Z,7.30
2022-10-03T23:07:19.172Z,6.18
2022-10-03T23:10:07.421Z,6.40
2022-10-03T23:12:41.460Z,6.22
2022-10-03T23:15:10.038Z,6.63
2022-10-03T23:18:10.051Z,5.78
2022-10-03T23:20:48.482Z,6.57
2022-10-03T23:23:20.965Z,5.95
2022-10-03T23:26:06.110Z,6.03
2022-10-03T23:28:59.179Z,6.05
2022-10-03T23:31:50.386Z,6.43
2022-10-03T23:34:37.917Z,5.90
2022-10-03T23:37:23.323Z,5.60
2022-10-03T23:39:55.759Z,6.57
2022-10-03T23:42:31.312Z,6.45
2022-10-03T23:45:00.878Z,6.85
2022-10-03T23:47:32.665Z,6.07
2022-10-03T23:50:02.560Z,6.07
2022-10-03T23:52:36.193Z,6.40
2022-10-03T23:55:06.773Z,6.00
2022-10-03T23:57:41.502Z,5.85
